createdAt,value
2022-12-18T00:01:14.831Z,100.00
2022-12-18T00:03:41.987Z,100.00
2022-12-18T00:06:09.742Z,100.00
2022-12-18T00:08:36.427Z,100.00
2022-12-18T00:11:07.437Z,100.00
2022-12-18T00:13:35.036Z,100.00
2022-12-18T00:16:07.743Z,100.00
2022-12-18T00:18:34.680Z,100.00
2022-12-18T00:21:03.968Z,100.00
2022-12-18T00:23:31.543Z,100.00
2022-12-18T00:26:08.071Z,100.00
2022-12-18T00:28:35.369Z,100.00
2022-12-18T00:31:07.743Z,100.00
2022-12-18T00:33:35.763Z,100.00
2022-12-18T00:36:12.445Z,100.00
2022-12-18T00:38:40.034Z,100.00
2022-12-18T00:41:08.281Z,100.00
2022-12-18T00:43:35.387Z,100.00
2022-12-18T00:46:02.507Z,100.00
2022-12-18T00:48:29.473Z,100.00
2022-12-18T00:50:56.166Z,100.00
2022-12-18T00:53:23.082Z,100.00
2022-12-18T00:55:49.730Z,100.00
2022-12-18T00:58:17.761Z,100.00
2022-12-18T01:00:44.943Z,100.00
2022-12-18T01:03:15.487Z,100.00
2022-12-18T01:05:43.277Z,100.00
2022-12-18T01:08:10.452Z,100.00
2022-12-18T01:10:37.106Z,100.00
2022-12-18T01:13:03.833Z,100.00
2022-12-18T01:15:30.485Z,100.00
2022-12-18T01:17:57.119Z,100.00
2022-12-18T01:20:23.735Z,100.00
2022-12-18T01:22:50.569Z,100.00
2022-12-18T01:25:17.322Z,100.00
2022-12-18T01:27:43.928Z,100.00
2022-12-18T01:30:11.236Z,100.00
2022-12-18T01:32:37.845Z,100.00
2022-12-18T01:35:04.905Z,100.00
2022-12-18T01:37:31.563Z,100.00
2022-12-18T01:39:58.172Z,100.00
2022-12-18T01:42:26.719Z,100.00
2022-12-18T01:45:05.865Z,100.00
2022-12-18T01:47:50.758Z,100.00
2022-12-18T01:50:46.953Z,100.00
2022-12-18T01:53:23.519Z,100.00
2022-12-18T01:55:53.999Z,100.00
2022-12-18T01:58:23.181Z,100.00
2022-12-18T02:00:49.936Z,100.00
2022-12-18T02:03:19.425Z,100.00
2022-12-18T02:06:04.752Z,100.00
2022-12-18T02:08:42.366Z,100.00
2022-12-18T02:11:27.759Z,100.00
2022-12-18T02:14:16.052Z,100.00
2022-12-18T02:17:00.833Z,100.00
2022-12-18T02:19:45.846Z,100.00
2022-12-18T02:22:18.296Z,100.00
2022-12-18T02:24:50.937Z,100.00
2022-12-18T02:27:18.106Z,100.00
2022-12-18T02:29:57.900Z,100.00
2022-12-18T02:32:32.909Z,100.00
2022-12-18T02:35:02.181Z,100.00
2022-12-18T02:37:30.847Z,100.00
2022-12-18T02:39:59.677Z,100.00
2022-12-18T02:42:29.024Z,100.00
2022-12-18T02:44:55.696Z,100.00
2022-12-18T02:47:25.886Z,100.00
2022-12-18T02:49:58.639Z,100.00
2022-12-18T02:52:28.060Z,100.00
2022-12-18T02:55:20.057Z,100.00
2022-12-18T02:58:11.452Z,100.00
2022-12-18T03:00:56.868Z,100.00
2022-12-18T03:03:33.763Z,100.00
2022-12-18T03:06:10.784Z,100.00
2022-12-18T03:08:52.026Z,100.00
2022-12-18T03:11:38.895Z,100.00
2022-12-18T03:14:08.549Z,100.00
2022-12-18T03:16:37.941Z,100.00
2022-12-18T03:19:21.354Z,100.00
2022-12-18T03:21:52.263Z,100.00
2022-12-18T03:24:20.933Z,100.00
2022-12-18T03:26:50.352Z,100.00
2022-12-18T03:29:25.711Z,100.00
2022-12-18T03:32:01.612Z,100.00
2022-12-18T03:34:32.602Z,100.00
2022-12-18T03:36:59.327Z,100.00
2022-12-18T03:39:26.696Z,100.00
2022-12-18T03:42:05.479Z,100.00
2022-12-18T03:44:45.259Z,100.00
2022-12-18T03:47:14.740Z,100.00
2022-12-18T03:49:55.402Z,100.00
2022-12-18T03:52:47.721Z,100.00
2022-12-18T03:55:14.457Z,100.00
2022-12-18T03:57:43.781Z,100.00
2022-12-18T04:00:15.638Z,100.00
2022-12-18T04:02:51.661Z,100.00
2022-12-18T04:05:20.101Z,100.00
2022-12-18T04:07:50.228Z,100.00
2022-12-18T04:10:18.413Z,100.00
2022-12-18T04:12:45.409Z,100.00
2022-12-18T04:15:13.020Z,100.00
2022-12-18T04:17:44.406Z,100.00
2022-12-18T04:20:11.476Z,100.00
2022-12-18T04:22:38.173Z,100.00
2022-12-18T04:25:05.353Z,100.00
2022-12-18T04:27:32.031Z,100.00
2022-12-18T04:29:58.863Z,100.00
2022-12-18T04:32:25.689Z,100.00
2022-12-18T04:34:52.417Z,100.00
2022-12-18T04:37:18.988Z,100.00
2022-12-18T04:39:45.589Z,100.00
2022-12-18T04:42:12.312Z,100.00
2022-12-18T04:44:38.931Z,100.00
2022-12-18T04:47:05.561Z,100.00
2022-12-18T04:49:32.166Z,100.00
2022-12-18T04:51:58.774Z,100.00
2022-12-18T04:54:25.485Z,100.00
2022-12-18T04:56:52.241Z,100.00
2022-12-18T04:59:21.447Z,100.00
2022-12-18T05:01:48.274Z,100.00
2022-12-18T05:04:15.279Z,100.00
2022-12-18T05:06:42.035Z,100.00
2022-12-18T05:09:10.894Z,100.00
2022-12-18T05:11:37.557Z,100.00
2022-12-18T05:14:04.641Z,100.00
2022-12-18T05:16:31.443Z,100.00
2022-12-18T05:18:58.248Z,100.00
2022-12-18T05:21:24.910Z,100.00
2022-12-18T05:23:51.833Z,100.00
2022-12-18T05:26:19.720Z,100.00
2022-12-18T05:28:47.013Z,100.00
2022-12-18T05:31:14.616Z,100.00
2022-12-18T05:33:41.674Z,100.00
2022-12-18T05:36:09.890Z,100.00
2022-12-18T05:38:39.622Z,100.00
2022-12-18T05:41:07.569Z,100.00
2022-12-18T05:43:40.483Z,100.00
2022-12-18T05:46:21.284Z,100.00
2022-12-18T05:48:47.997Z,100.00
2022-12-18T05:51:17.286Z,100.00
2022-12-18T05:53:44.457Z,100.00
2022-12-18T05:56:14.392Z,100.00
2022-12-18T05:58:41.345Z,100.00
2022-12-18T06:01:12.175Z,99.81
2022-12-18T06:03:39.850Z,99.66
2022-12-18T06:06:17.981Z,99.85
2022-12-18T06:08:46.871Z,98.29
2022-12-18T06:11:14.711Z,97.46
2022-12-18T06:13:41.669Z,97.86
2022-12-18T06:16:09.315Z,98.36
2022-12-18T06:18:36.137Z,97.71
2022-12-18T06:21:03.028Z,97.45
2022-12-18T06:23:29.729Z,97.55
2022-12-18T06:25:56.729Z,97.79
2022-12-18T06:28:23.318Z,97.28
2022-12-18T06:30:50.753Z,96.51
2022-12-18T06:33:18.011Z,96.08
2022-12-18T06:35:44.697Z,96.20
2022-12-18T06:38:12.507Z,95.93
2022-12-18T06:40:40.511Z,95.98
2022-12-18T06:43:07.408Z,96.16
2022-12-18T06:45:34.069Z,96.53
2022-12-18T06:48:01.187Z,95.63
2022-12-18T06:50:27.895Z,95.61
2022-12-18T06:52:55.511Z,95.03
2022-12-18T06:55:22.201Z,94.52
2022-12-18T06:57:48.871Z,96.86
2022-12-18T07:00:16.978Z,97.03
2022-12-18T07:02:43.832Z,97.38
2022-12-18T07:05:11.217Z,96.48
2022-12-18T07:07:38.446Z,94.66
2022-12-18T07:10:05.628Z,95.02
2022-12-18T07:12:32.231Z,95.33
2022-12-18T07:14:58.840Z,92.60
2022-12-18T07:17:25.452Z,91.24
2022-12-18T07:19:52.260Z,91.54
2022-12-18T07:22:19.032Z,91.72
2022-12-18T07:24:46.371Z,92.48
2022-12-18T07:27:12.939Z,92.57
2022-12-18T07:29:40.637Z,93.11
2022-12-18T07:32:08.150Z,92.96
2022-12-18T07:34:35.828Z,92.27
2022-12-18T07:37:03.465Z,92.76
2022-12-18T07:39:30.044Z,93.66
2022-12-18T07:42:15.811Z,92.07
2022-12-18T07:44:42.450Z,92.88
2022-12-18T07:47:11.944Z,91.60
2022-12-18T07:49:39.253Z,91.55
2022-12-18T07:52:05.909Z,90.79
2022-12-18T07:54:32.645Z,91.30
2022-12-18T07:56:59.396Z,91.43
2022-12-18T07:59:25.988Z,90.81
2022-12-18T08:01:54.093Z,91.21
2022-12-18T08:04:20.828Z,90.99
2022-12-18T08:06:48.389Z,90.35
2022-12-18T08:09:15.447Z,90.52
2022-12-18T08:11:42.101Z,91.40
2022-12-18T08:14:08.874Z,90.13
2022-12-18T08:16:35.547Z,89.90
2022-12-18T08:19:02.268Z,90.20
2022-12-18T08:21:31.084Z,90.93
2022-12-18T08:24:00.210Z,89.23
2022-12-18T08:26:29.180Z,89.57
2022-12-18T08:28:57.537Z,89.92
2022-12-18T08:31:27.365Z,89.84
2022-12-18T08:33:55.338Z,90.54
2022-12-18T08:36:23.240Z,90.48
2022-12-18T08:38:50.957Z,89.83
2022-12-18T08:41:18.651Z,88.77
2022-12-18T08:44:04.383Z,89.28
2022-12-18T08:46:40.193Z,88.78
2022-12-18T08:49:08.328Z,88.96
2022-12-18T08:51:35.707Z,88.79
2022-12-18T08:54:02.589Z,89.05
2022-12-18T08:56:31.195Z,89.17
2022-12-18T08:58:58.225Z,89.83
2022-12-18T09:01:25.570Z,90.33
2022-12-18T09:03:52.697Z,90.98
2022-12-18T09:06:21.181Z,92.05
2022-12-18T09:08:48.338Z,92.25
2022-12-18T09:11:20.426Z,93.09
2022-12-18T09:13:47.256Z,93.57
2022-12-18T09:16:13.996Z,93.99
2022-12-18T09:18:43.156Z,95.26
2022-12-18T09:21:12.054Z,95.62
2022-12-18T09:23:38.817Z,96.19
2022-12-18T09:26:05.652Z,98.08
2022-12-18T09:28:32.304Z,99.05
2022-12-18T09:30:59.070Z,100.00
2022-12-18T09:33:25.973Z,100.00
2022-12-18T09:35:52.884Z,100.00
2022-12-18T09:38:20.531Z,100.00
2022-12-18T09:40:53.850Z,100.00
2022-12-18T09:43:52.491Z,100.00
2022-12-18T09:46:30.366Z,100.00
2022-12-18T09:49:03.156Z,100.00
2022-12-18T09:51:48.647Z,100.00
2022-12-18T09:54:23.853Z,100.00
2022-12-18T09:56:50.681Z,100.00
2022-12-18T09:59:38.396Z,100.00
2022-12-18T10:02:15.971Z,100.00
2022-12-18T10:04:43.026Z,100.00
2022-12-18T10:07:24.854Z,100.00
2022-12-18T10:10:25.168Z,100.00
2022-12-18T10:13:05.055Z,100.00
2022-12-18T10:15:41.226Z,100.00
2022-12-18T10:18:26.790Z,100.00
2022-12-18T10:21:01.361Z,100.00
2022-12-18T10:23:48.519Z,100.00
2022-12-18T10:26:15.469Z,100.00
2022-12-18T10:28:43.749Z,100.00
2022-12-18T10:31:28.666Z,100.00
2022-12-18T10:33:56.340Z,100.00
2022-12-18T10:36:25.727Z,100.00
2022-12-18T10:38:52.453Z,100.00
2022-12-18T10:41:19.621Z,100.00
2022-12-18T10:43:48.951Z,100.00
2022-12-18T10:46:20.762Z,100.00
2022-12-18T10:48:55.351Z,100.00
2022-12-18T10:51:25.028Z,100.00
2022-12-18T10:53:58.979Z,100.00
2022-12-18T10:56:28.471Z,100.00
2022-12-18T10:59:07.897Z,100.00
2022-12-18T11:01:56.393Z,100.00
2022-12-18T11:04:33.319Z,100.00
2022-12-18T11:07:05.009Z,100.00
2022-12-18T11:09:34.552Z,100.00
2022-12-18T11:12:18.014Z,100.00
2022-12-18T11:14:51.193Z,100.00
2022-12-18T11:17:30.649Z,100.00
2022-12-18T11:20:00.334Z,100.00
2022-12-18T11:22:29.045Z,100.00
2022-12-18T11:25:31.884Z,100.00
2022-12-18T11:28:04.081Z,100.00
2022-12-18T11:30:36.386Z,100.00
2022-12-18T11:33:12.373Z,100.00
2022-12-18T11:35:52.679Z,100.00
2022-12-18T11:38:27.227Z,100.00
2022-12-18T11:41:05.541Z,100.00
2022-12-18T11:43:54.277Z,100.00
2022-12-18T11:46:44.472Z,100.00
2022-12-18T11:49:21.643Z,100.00
2022-12-18T11:51:55.347Z,100.00
2022-12-18T11:54:22.202Z,100.00
2022-12-18T11:57:03.460Z,100.00
2022-12-18T11:59:36.030Z,100.00
2022-12-18T12:02:17.936Z,100.00
2022-12-18T12:04:55.842Z,100.00
2022-12-18T12:07:30.673Z,100.00
2022-12-18T12:10:18.697Z,100.00
2022-12-18T12:13:07.113Z,100.00
2022-12-18T12:16:04.801Z,100.00
2022-12-18T12:18:46.627Z,100.00
2022-12-18T12:21:28.540Z,100.00
2022-12-18T12:24:20.799Z,100.00
2022-12-18T12:27:22.372Z,100.00
2022-12-18T12:29:55.880Z,100.00
2022-12-18T12:32:28.572Z,100.00
2022-12-18T12:35:06.057Z,100.00
2022-12-18T12:38:13.619Z,100.00
2022-12-18T12:41:02.465Z,100.00
2022-12-18T12:43:46.113Z,100.00
2022-12-18T12:46:20.814Z,100.00
2022-12-18T12:48:56.910Z,100.00
2022-12-18T12:51:31.077Z,100.00
2022-12-18T12:53:59.543Z,100.00
2022-12-18T12:56:47.446Z,100.00
2022-12-18T12:59:31.525Z,100.00
2022-12-18T13:02:25.564Z,100.00
2022-12-18T13:05:05.026Z,100.00
2022-12-18T13:07:48.544Z,100.00
2022-12-18T13:10:20.842Z,100.00
2022-12-18T13:12:57.901Z,100.00
2022-12-18T13:15:47.928Z,100.00
2022-12-18T13:18:24.182Z,100.00
2022-12-18T13:20:58.479Z,100.00
2022-12-18T13:23:29.980Z,100.00
2022-12-18T13:25:58.236Z,100.00
2022-12-18T13:28:34.364Z,100.00
2022-12-18T13:31:02.636Z,100.00
2022-12-18T13:33:29.784Z,100.00
2022-12-18T13:36:02.733Z,100.00
2022-12-18T13:38:33.344Z,100.00
2022-12-18T13:41:01.882Z,100.00
2022-12-18T13:43:30.265Z,100.00
2022-12-18T13:45:59.978Z,100.00
2022-12-18T13:48:28.354Z,100.00
2022-12-18T13:51:01.696Z,100.00
2022-12-18T13:53:54.392Z,100.00
2022-12-18T13:56:29.451Z,100.00
2022-12-18T13:59:14.933Z,100.00
2022-12-18T14:01:50.530Z,100.00
2022-12-18T14:04:32.958Z,100.00
2022-12-18T14:07:07.707Z,100.00
2022-12-18T14:09:43.274Z,100.00
2022-12-18T14:12:50.308Z,100.00
2022-12-18T14:15:26.172Z,100.00
2022-12-18T14:18:14.906Z,100.00
2022-12-18T14:20:49.222Z,100.00
2022-12-18T14:23:42.174Z,100.00
2022-12-18T14:26:30.286Z,100.00
2022-12-18T14:28:59.279Z,98.96
2022-12-18T14:31:29.341Z,99.12
2022-12-18T14:33:56.985Z,100.00
2022-12-18T14:36:28.850Z,100.00
2022-12-18T14:38:58.177Z,100.00
2022-12-18T14:41:26.118Z,100.00
2022-12-18T14:43:55.222Z,100.00
2022-12-18T14:46:34.326Z,100.00
2022-12-18T14:49:04.535Z,100.00
2022-12-18T14:51:34.352Z,100.00
2022-12-18T14:54:04.803Z,100.00
2022-12-18T14:56:35.297Z,100.00
2022-12-18T14:59:07.404Z,100.00
2022-12-18T15:01:40.376Z,100.00
2022-12-18T15:04:28.977Z,100.00
2022-12-18T15:07:15.410Z,100.00
2022-12-18T15:09:45.380Z,100.00
2022-12-18T15:12:26.858Z,100.00
2022-12-18T15:14:53.538Z,100.00
2022-12-18T15:17:24.673Z,100.00
2022-12-18T15:20:02.212Z,100.00
2022-12-18T15:22:31.689Z,100.00
2022-12-18T15:24:59.951Z,100.00
2022-12-18T15:27:39.292Z,100.00
2022-12-18T15:30:09.096Z,100.00
2022-12-18T15:32:40.591Z,100.00
2022-12-18T15:35:18.184Z,100.00
2022-12-18T15:37:45.756Z,100.00
2022-12-18T15:40:19.005Z,100.00
2022-12-18T15:43:06.475Z,100.00
2022-12-18T15:45:33.277Z,100.00
2022-12-18T15:48:00.649Z,100.00
2022-12-18T15:50:27.448Z,100.00
2022-12-18T15:52:56.490Z,100.00
2022-12-18T15:55:43.069Z,100.00
2022-12-18T15:58:12.676Z,100.00
2022-12-18T16:00:41.287Z,100.00
2022-12-18T16:03:10.299Z,100.00
2022-12-18T16:05:37.146Z,100.00
2022-12-18T16:08:03.983Z,100.00
2022-12-18T16:10:30.676Z,100.00
2022-12-18T16:12:57.422Z,100.00
2022-12-18T16:15:24.899Z,100.00
2022-12-18T16:17:52.978Z,100.00
2022-12-18T16:20:22.710Z,100.00
2022-12-18T16:22:50.679Z,100.00
2022-12-18T16:25:27.456Z,100.00
2022-12-18T16:27:56.256Z,100.00
2022-12-18T16:30:29.434Z,100.00
2022-12-18T16:33:00.427Z,100.00
2022-12-18T16:35:27.749Z,100.00
2022-12-18T16:37:54.590Z,100.00
2022-12-18T16:40:21.337Z,100.00
2022-12-18T16:42:47.916Z,100.00
2022-12-18T16:45:17.420Z,100.00
2022-12-18T16:47:44.342Z,100.00
2022-12-18T16:50:11.698Z,100.00
2022-12-18T16:52:39.299Z,100.00
2022-12-18T16:55:06.553Z,100.00
2022-12-18T16:57:33.641Z,100.00
2022-12-18T17:00:05.106Z,100.00
2022-12-18T17:02:33.643Z,100.00
2022-12-18T17:05:00.618Z,100.00
2022-12-18T17:07:28.542Z,100.00
2022-12-18T17:09:55.755Z,100.00
2022-12-18T17:12:23.484Z,100.00
2022-12-18T17:14:50.604Z,100.00
2022-12-18T17:17:22.188Z,100.00
2022-12-18T17:19:49.918Z,100.00
2022-12-18T17:22:16.553Z,100.00
2022-12-18T17:24:43.187Z,100.00
2022-12-18T17:27:09.936Z,100.00
2022-12-18T17:29:36.638Z,100.00
2022-12-18T17:32:03.861Z,100.00
2022-12-18T17:34:30.715Z,100.00
2022-12-18T17:36:57.789Z,100.00
2022-12-18T17:39:24.451Z,100.00
2022-12-18T17:41:52.353Z,100.00
2022-12-18T17:44:19.153Z,100.00
2022-12-18T17:46:46.295Z,100.00
2022-12-18T17:49:14.110Z,100.00
2022-12-18T17:51:43.446Z,100.00
2022-12-18T17:54:11.609Z,100.00
2022-12-18T17:56:39.498Z,100.00
2022-12-18T17:59:07.034Z,100.00
2022-12-18T18:01:33.885Z,100.00
2022-12-18T18:04:02.186Z,100.00
2022-12-18T18:06:28.978Z,100.00
2022-12-18T18:08:56.925Z,100.00
2022-12-18T18:11:43.221Z,100.00
2022-12-18T18:14:20.552Z,100.00
2022-12-18T18:16:49.656Z,100.00
2022-12-18T18:19:19.229Z,100.00
2022-12-18T18:21:48.919Z,100.00
2022-12-18T18:24:18.923Z,100.00
2022-12-18T18:26:48.845Z,100.00
2022-12-18T18:29:20.884Z,100.00
2022-12-18T18:31:48.025Z,100.00
2022-12-18T18:34:21.786Z,100.00
2022-12-18T18:36:48.558Z,100.00
2022-12-18T18:39:15.562Z,100.00
2022-12-18T18:41:44.090Z,100.00
2022-12-18T18:44:35.367Z,100.00
2022-12-18T18:47:02.081Z,100.00
2022-12-18T18:49:31.896Z,100.00
2022-12-18T18:51:59.324Z,100.00
2022-12-18T18:54:26.488Z,100.00
2022-12-18T18:57:19.548Z,100.00
2022-12-18T18:59:40.008Z,100.00
2022-12-18T19:02:09.289Z,100.00
2022-12-18T19:04:43.648Z,100.00
2022-12-18T19:07:13.141Z,100.00
2022-12-18T19:09:43.845Z,100.00
2022-12-18T19:12:29.494Z,100.00
2022-12-18T19:14:56.170Z,100.00
2022-12-18T19:17:26.395Z,100.00
2022-12-18T19:19:56.538Z,100.00
2022-12-18T19:22:23.607Z,100.00
2022-12-18T19:24:50.282Z,100.00
2022-12-18T19:27:16.882Z,100.00
2022-12-18T19:29:43.524Z,100.00
2022-12-18T19:32:10.310Z,100.00
2022-12-18T19:34:39.129Z,100.00
2022-12-18T19:37:05.931Z,100.00
2022-12-18T19:39:32.700Z,100.00
2022-12-18T19:42:02.044Z,100.00
2022-12-18T19:44:28.766Z,100.00
2022-12-18T19:46:55.393Z,100.00
2022-12-18T19:49:22.126Z,100.00
2022-12-18T19:51:50.109Z,100.00
2022-12-18T19:54:17.770Z,100.00
2022-12-18T19:56:45.774Z,100.00
2022-12-18T19:59:13.089Z,100.00
2022-12-18T20:01:40.862Z,100.00
2022-12-18T20:04:08.021Z,100.00
2022-12-18T20:06:53.532Z,100.00
2022-12-18T20:09:22.173Z,100.00
2022-12-18T20:11:49.609Z,100.00
2022-12-18T20:14:22.688Z,100.00
2022-12-18T20:16:50.141Z,100.00
2022-12-18T20:19:19.352Z,100.00
2022-12-18T20:21:46.347Z,100.00
2022-12-18T20:24:13.140Z,100.00
2022-12-18T20:26:40.653Z,100.00
2022-12-18T20:29:07.780Z,100.00
2022-12-18T20:31:34.485Z,100.00
2022-12-18T20:34:01.737Z,100.00
2022-12-18T20:36:30.695Z,100.00
2022-12-18T20:39:00.537Z,100.00
2022-12-18T20:41:37.371Z,100.00
2022-12-18T20:44:22.472Z,100.00
2022-12-18T20:47:00.287Z,100.00
2022-12-18T20:49:32.435Z,100.00
2022-12-18T20:51:59.555Z,100.00
2022-12-18T20:54:27.498Z,100.00
2022-12-18T20:56:54.768Z,100.00
2022-12-18T20:59:23.145Z,100.00
2022-12-18T21:01:50.206Z,100.00
2022-12-18T21:04:18.669Z,100.00
2022-12-18T21:06:50.980Z,100.00
2022-12-18T21:09:20.474Z,100.00
2022-12-18T21:12:05.645Z,100.00
2022-12-18T21:14:32.447Z,100.00
2022-12-18T21:17:02.320Z,100.00
2022-12-18T21:19:30.560Z,100.00
2022-12-18T21:21:57.894Z,100.00
2022-12-18T21:24:27.403Z,100.00
2022-12-18T21:26:57.296Z,100.00
2022-12-18T21:29:26.026Z,100.00
2022-12-18T21:31:54.788Z,100.00
2022-12-18T21:34:29.034Z,100.00
2022-12-18T21:36:59.413Z,100.00
2022-12-18T21:39:28.758Z,100.00
2022-12-18T21:42:15.063Z,100.00
2022-12-18T21:44:42.576Z,100.00
2022-12-18T21:47:21.756Z,100.00
2022-12-18T21:49:52.268Z,100.00
2022-12-18T21:52:19.066Z,100.00
2022-12-18T21:54:45.888Z,100.00
2022-12-18T21:57:15.327Z,100.00
2022-12-18T21:59:43.748Z,100.00
2022-12-18T22:02:20.124Z,100.00
2022-12-18T22:04:48.495Z,100.00
2022-12-18T22:07:16.530Z,97.96
2022-12-18T22:09:43.275Z,97.74
2022-12-18T22:12:13.306Z,98.79
2022-12-18T22:14:40.189Z,97.91
2022-12-18T22:17:06.827Z,97.45
2022-12-18T22:19:38.118Z,96.51
2022-12-18T22:22:09.447Z,96.08
2022-12-18T22:24:36.079Z,95.22
2022-12-18T22:27:02.673Z,95.64
2022-12-18T22:29:48.692Z,95.91
2022-12-18T22:32:22.101Z,94.41
2022-12-18T22:35:05.282Z,94.37
2022-12-18T22:37:33.985Z,93.74
2022-12-18T22:40:03.162Z,92.82
2022-12-18T22:42:31.199Z,91.74
2022-12-18T22:44:57.845Z,91.05
2022-12-18T22:47:29.345Z,89.58
2022-12-18T22:49:57.367Z,90.37
2022-12-18T22:52:24.739Z,90.59
2022-12-18T22:54:53.724Z,91.03
2022-12-18T22:57:22.994Z,91.37
2022-12-18T22:59:50.579Z,89.82
2022-12-18T23:02:19.454Z,89.18
2022-12-18T23:04:47.822Z,88.92
2022-12-18T23:07:16.735Z,89.26
2022-12-18T23:09:44.228Z,89.92
2022-12-18T23:12:16.572Z,91.09
2022-12-18T23:14:44.933Z,92.14
2022-12-18T23:17:11.615Z,92.53
2022-12-18T23:19:49.164Z,93.04
2022-12-18T23:22:16.917Z,93.39
2022-12-18T23:24:43.699Z,94.06
2022-12-18T23:27:11.523Z,94.27
2022-12-18T23:29:39.479Z,94.70
2022-12-18T23:32:06.349Z,93.05
2022-12-18T23:34:34.098Z,92.05
2022-12-18T23:37:01.283Z,91.01
2022-12-18T23:39:29.340Z,90.22
2022-12-18T23:41:58.520Z,90.65
2022-12-18T23:44:25.674Z,91.79
2022-12-18T23:46:53.613Z,92.06
2022-12-18T23:49:20.611Z,91.56
2022-12-18T23:51:47.380Z,92.40
2022-12-18T23:54:14.089Z,91.59
2022-12-18T23:56:40.994Z,91.33
2022-12-18T23:59:07.623Z,90.83
